sensor_id;sensor_type;location;lat;lon;timestamp;P1;durP1;ratioP1;P2;durP2;ratioP2
75320;SDS011;68337;52.196;5.660;2023-06-22T00:00:56;2.83;;;2.63;;
75320;SDS011;68337;52.196;5.660;2023-06-22T00:03:23;3.10;;;2.78;;
75320;SDS011;68337;52.196;5.660;2023-06-22T00:05:50;2.75;;;2.55;;
75320;SDS011;68337;52.196;5.660;2023-06-22T00:08:16;3.10;;;2.90;;
75320;SDS011;68337;52.196;5.660;2023-06-22T00:10:43;2.70;;;2.50;;
75320;SDS011;68337;52.196;5.660;2023-06-22T00:13:10;3.03;;;2.83;;
75320;SDS011;68337;52.196;5.660;2023-06-22T00:15:36;3.28;;;2.97;;
75320;SDS011;68337;52.196;5.660;2023-06-22T00:18:03;3.33;;;3.00;;
75320;SDS011;68337;52.196;5.660;2023-06-22T00:20:30;3.08;;;2.53;;
75320;SDS011;68337;52.196;5.660;2023-06-22T00:22:57;3.30;;;2.72;;
75320;SDS011;68337;52.196;5.660;2023-06-22T00:25:25;4.60;;;3.00;;
75320;SDS011;68337;52.196;5.660;2023-06-22T00:27:51;3.20;;;2.90;;
75320;SDS011;68337;52.196;5.660;2023-06-22T00:30:17;2.60;;;2.40;;
75320;SDS011;68337;52.196;5.660;2023-06-22T00:32:44;2.80;;;2.60;;
75320;SDS011;68337;52.196;5.660;2023-06-22T00:35:11;4.13;;;2.80;;
75320;SDS011;68337;52.196;5.660;2023-06-22T00:37:37;3.35;;;3.05;;
75320;SDS011;68337;52.196;5.660;2023-06-22T00:40:06;3.13;;;2.83;;
75320;SDS011;68337;52.196;5.660;2023-06-22T00:42:33;2.95;;;2.70;;
75320;SDS011;68337;52.196;5.660;2023-06-22T00:44:59;2.72;;;2.53;;
75320;SDS011;68337;52.196;5.660;2023-06-22T00:47:25;3.08;;;2.78;;
75320;SDS011;68337;52.196;5.660;2023-06-22T00:49:51;3.35;;;3.05;;
75320;SDS011;68337;52.196;5.660;2023-06-22T00:52:18;2.97;;;2.70;;
75320;SDS011;68337;52.196;5.660;2023-06-22T00:54:50;4.90;;;2.60;;
75320;SDS011;68337;52.196;5.660;2023-06-22T00:57:17;2.78;;;2.40;;
75320;SDS011;68337;52.196;5.660;2023-06-22T00:59:47;3.40;;;2.80;;
75320;SDS011;68337;52.196;5.660;2023-06-22T01:02:13;3.38;;;2.88;;
75320;SDS011;68337;52.196;5.660;2023-06-22T01:04:39;4.78;;;3.00;;
75320;SDS011;68337;52.196;5.660;2023-06-22T01:09:42;3.13;;;2.83;;
75320;SDS011;68337;52.196;5.660;2023-06-22T01:12:13;2.67;;;2.47;;
75320;SDS011;68337;52.196;5.660;2023-06-22T01:14:49;4.13;;;2.90;;
75320;SDS011;68337;52.196;5.660;2023-06-22T01:17:20;2.63;;;2.42;;
75320;SDS011;68337;52.196;5.660;2023-06-22T01:19:49;3.05;;;2.75;;
75320;SDS011;68337;52.196;5.660;2023-06-22T01:22:22;3.53;;;3.30;;
75320;SDS011;68337;52.196;5.660;2023-06-22T01:30:40;2.92;;;2.72;;
75320;SDS011;68337;52.196;5.660;2023-06-22T01:33:08;3.42;;;3.17;;
75320;SDS011;68337;52.196;5.660;2023-06-22T01:35:37;3.47;;;3.20;;
75320;SDS011;68337;52.196;5.660;2023-06-22T01:38:03;3.38;;;3.08;;
75320;SDS011;68337;52.196;5.660;2023-06-22T01:40:30;3.65;;;3.35;;
75320;SDS011;68337;52.196;5.660;2023-06-22T01:42:59;3.40;;;3.10;;
75320;SDS011;68337;52.196;5.660;2023-06-22T01:45:26;3.72;;;3.42;;
75320;SDS011;68337;52.196;5.660;2023-06-22T01:47:53;3.97;;;3.67;;
75320;SDS011;68337;52.196;5.660;2023-06-22T01:50:20;4.47;;;3.28;;
75320;SDS011;68337;52.196;5.660;2023-06-22T01:52:46;3.70;;;3.15;;
75320;SDS011;68337;52.196;5.660;2023-06-22T01:55:12;5.43;;;3.47;;
75320;SDS011;68337;52.196;5.660;2023-06-22T01:57:38;4.05;;;3.65;;
75320;SDS011;68337;52.196;5.660;2023-06-22T02:00:09;3.80;;;3.50;;
75320;SDS011;68337;52.196;5.660;2023-06-22T02:03:13;4.30;;;3.85;;
75320;SDS011;68337;52.196;5.660;2023-06-22T02:05:34;4.32;;;3.92;;
75320;SDS011;68337;52.196;5.660;2023-06-22T02:08:13;5.05;;;3.95;;
75320;SDS011;68337;52.196;5.660;2023-06-22T02:10:53;4.47;;;4.07;;
75320;SDS011;68337;52.196;5.660;2023-06-22T02:13:20;5.28;;;3.83;;
75320;SDS011;68337;52.196;5.660;2023-06-22T02:15:46;4.60;;;4.20;;
75320;SDS011;68337;52.196;5.660;2023-06-22T02:18:13;4.55;;;4.15;;
75320;SDS011;68337;52.196;5.660;2023-06-22T02:20:39;4.78;;;4.28;;
75320;SDS011;68337;52.196;5.660;2023-06-22T02:23:05;5.47;;;4.55;;
75320;SDS011;68337;52.196;5.660;2023-06-22T02:25:32;5.72;;;5.10;;
75320;SDS011;68337;52.196;5.660;2023-06-22T02:27:59;5.15;;;4.60;;
75320;SDS011;68337;52.196;5.660;2023-06-22T02:30:24;5.30;;;4.80;;
75320;SDS011;68337;52.196;5.660;2023-06-22T02:32:50;6.10;;;5.50;;
75320;SDS011;68337;52.196;5.660;2023-06-22T02:35:23;4.95;;;4.18;;
75320;SDS011;68337;52.196;5.660;2023-06-22T02:38:00;5.25;;;4.75;;
75320;SDS011;68337;52.196;5.660;2023-06-22T02:40:28;5.78;;;4.13;;
75320;SDS011;68337;52.196;5.660;2023-06-22T02:42:54;4.45;;;4.05;;
75320;SDS011;68337;52.196;5.660;2023-06-22T02:45:23;4.75;;;4.35;;
75320;SDS011;68337;52.196;5.660;2023-06-22T02:47:48;4.95;;;4.55;;
75320;SDS011;68337;52.196;5.660;2023-06-22T02:50:14;5.55;;;4.43;;
75320;SDS011;68337;52.196;5.660;2023-06-22T02:52:40;6.10;;;4.53;;
75320;SDS011;68337;52.196;5.660;2023-06-22T02:55:06;5.00;;;4.50;;
75320;SDS011;68337;52.196;5.660;2023-06-22T02:57:33;4.72;;;4.20;;
75320;SDS011;68337;52.196;5.660;2023-06-22T02:59:59;4.97;;;4.43;;
75320;SDS011;68337;52.196;5.660;2023-06-22T03:02:25;4.90;;;4.45;;
75320;SDS011;68337;52.196;5.660;2023-06-22T03:04:51;5.05;;;4.45;;
75320;SDS011;68337;52.196;5.660;2023-06-22T03:07:18;5.32;;;4.70;;
75320;SDS011;68337;52.196;5.660;2023-06-22T03:09:44;6.10;;;4.85;;
75320;SDS011;68337;52.196;5.660;2023-06-22T03:12:10;5.15;;;4.65;;
75320;SDS011;68337;52.196;5.660;2023-06-22T03:14:36;7.97;;;5.38;;
75320;SDS011;68337;52.196;5.660;2023-06-22T03:17:04;6.07;;;5.50;;
75320;SDS011;68337;52.196;5.660;2023-06-22T03:19:30;6.72;;;6.07;;
75320;SDS011;68337;52.196;5.660;2023-06-22T03:21:59;7.00;;;5.78;;
75320;SDS011;68337;52.196;5.660;2023-06-22T03:24:25;11.38;;;5.68;;
75320;SDS011;68337;52.196;5.660;2023-06-22T03:26:54;6.70;;;5.80;;
75320;SDS011;68337;52.196;5.660;2023-06-22T03:29:20;7.82;;;6.68;;
75320;SDS011;68337;52.196;5.660;2023-06-22T03:31:46;6.93;;;6.22;;
75320;SDS011;68337;52.196;5.660;2023-06-22T03:34:12;6.97;;;6.28;;
75320;SDS011;68337;52.196;5.660;2023-06-22T03:36:37;9.07;;;7.20;;
75320;SDS011;68337;52.196;5.660;2023-06-22T03:39:03;8.27;;;7.47;;
75320;SDS011;68337;52.196;5.660;2023-06-22T03:41:29;8.55;;;7.65;;
75320;SDS011;68337;52.196;5.660;2023-06-22T03:43:54;8.73;;;7.75;;
75320;SDS011;68337;52.196;5.660;2023-06-22T03:46:20;8.77;;;7.88;;
75320;SDS011;68337;52.196;5.660;2023-06-22T03:48:46;7.93;;;7.13;;
75320;SDS011;68337;52.196;5.660;2023-06-22T03:51:12;8.15;;;7.35;;
75320;SDS011;68337;52.196;5.660;2023-06-22T03:53:37;7.63;;;6.68;;
75320;SDS011;68337;52.196;5.660;2023-06-22T03:56:03;7.60;;;6.93;;
75320;SDS011;68337;52.196;5.660;2023-06-22T03:58:29;8.52;;;7.68;;
75320;SDS011;68337;52.196;5.660;2023-06-22T04:00:57;8.10;;;7.18;;
75320;SDS011;68337;52.196;5.660;2023-06-22T04:03:25;12.73;;;8.27;;
75320;SDS011;68337;52.196;5.660;2023-06-22T04:05:50;11.68;;;9.45;;
75320;SDS011;68337;52.196;5.660;2023-06-22T04:08:16;9.48;;;8.20;;
75320;SDS011;68337;52.196;5.660;2023-06-22T04:10:43;12.20;;;10.88;;
75320;SDS011;68337;52.196;5.660;2023-06-22T04:13:09;15.18;;;10.95;;
75320;SDS011;68337;52.196;5.660;2023-06-22T04:15:35;10.75;;;9.68;;
75320;SDS011;68337;52.196;5.660;2023-06-22T04:18:00;10.27;;;8.77;;
75320;SDS011;68337;52.196;5.660;2023-06-22T04:20:26;9.60;;;8.70;;
75320;SDS011;68337;52.196;5.660;2023-06-22T04:22:53;10.93;;;9.13;;
75320;SDS011;68337;52.196;5.660;2023-06-22T04:25:19;13.70;;;11.73;;
75320;SDS011;68337;52.196;5.660;2023-06-22T04:27:45;16.02;;;12.07;;
75320;SDS011;68337;52.196;5.660;2023-06-22T04:30:11;15.55;;;13.43;;
75320;SDS011;68337;52.196;5.660;2023-06-22T04:32:40;16.10;;;12.40;;
75320;SDS011;68337;52.196;5.660;2023-06-22T04:35:06;19.02;;;14.73;;
75320;SDS011;68337;52.196;5.660;2023-06-22T04:37:32;23.13;;;16.95;;
75320;SDS011;68337;52.196;5.660;2023-06-22T04:39:58;28.58;;;22.25;;
75320;SDS011;68337;52.196;5.660;2023-06-22T04:42:27;25.55;;;22.10;;
75320;SDS011;68337;52.196;5.660;2023-06-22T04:44:53;29.23;;;23.42;;
75320;SDS011;68337;52.196;5.660;2023-06-22T04:47:19;29.42;;;22.40;;
75320;SDS011;68337;52.196;5.660;2023-06-22T04:49:45;31.80;;;24.95;;
75320;SDS011;68337;52.196;5.660;2023-06-22T04:52:11;41.42;;;30.17;;
75320;SDS011;68337;52.196;5.660;2023-06-22T04:54:38;47.13;;;36.08;;
75320;SDS011;68337;52.196;5.660;2023-06-22T04:57:06;50.50;;;37.50;;
75320;SDS011;68337;52.196;5.660;2023-06-22T04:59:35;54.30;;;41.17;;
75320;SDS011;68337;52.196;5.660;2023-06-22T05:02:04;50.47;;;38.90;;
75320;SDS011;68337;52.196;5.660;2023-06-22T05:04:30;52.35;;;39.88;;
75320;SDS011;68337;52.196;5.660;2023-06-22T05:06:57;51.38;;;39.75;;
75320;SDS011;68337;52.196;5.660;2023-06-22T05:09:23;48.67;;;39.55;;
75320;SDS011;68337;52.196;5.660;2023-06-22T05:11:52;50.17;;;39.95;;
75320;SDS011;68337;52.196;5.660;2023-06-22T05:14:17;47.00;;;37.28;;
75320;SDS011;68337;52.196;5.660;2023-06-22T05:16:44;48.65;;;38.60;;
75320;SDS011;68337;52.196;5.660;2023-06-22T05:19:10;49.33;;;39.10;;
75320;SDS011;68337;52.196;5.660;2023-06-22T05:21:37;46.42;;;36.75;;
75320;SDS011;68337;52.196;5.660;2023-06-22T05:24:03;45.33;;;35.00;;
75320;SDS011;68337;52.196;5.660;2023-06-22T05:26:29;44.35;;;36.78;;
75320;SDS011;68337;52.196;5.660;2023-06-22T05:28:56;47.17;;;32.03;;
75320;SDS011;68337;52.196;5.660;2023-06-22T05:31:22;41.92;;;34.95;;
75320;SDS011;68337;52.196;5.660;2023-06-22T05:33:48;42.03;;;34.67;;
75320;SDS011;68337;52.196;5.660;2023-06-22T05:36:16;44.08;;;33.22;;
75320;SDS011;68337;52.196;5.660;2023-06-22T05:38:42;45.67;;;34.90;;
75320;SDS011;68337;52.196;5.660;2023-06-22T05:41:08;45.20;;;32.38;;
75320;SDS011;68337;52.196;5.660;2023-06-22T05:43:33;37.83;;;31.13;;
75320;SDS011;68337;52.196;5.660;2023-06-22T05:46:00;41.45;;;32.95;;
75320;SDS011;68337;52.196;5.660;2023-06-22T05:48:27;38.70;;;31.77;;
75320;SDS011;68337;52.196;5.660;2023-06-22T05:50:53;42.83;;;33.22;;
75320;SDS011;68337;52.196;5.660;2023-06-22T05:53:19;36.83;;;29.60;;
75320;SDS011;68337;52.196;5.660;2023-06-22T05:55:45;34.22;;;28.67;;
75320;SDS011;68337;52.196;5.660;2023-06-22T05:58:11;36.85;;;29.83;;
75320;SDS011;68337;52.196;5.660;2023-06-22T06:00:38;35.65;;;28.42;;
75320;SDS011;68337;52.196;5.660;2023-06-22T06:03:04;38.58;;;28.55;;
75320;SDS011;68337;52.196;5.660;2023-06-22T06:05:31;31.10;;;26.05;;
75320;SDS011;68337;52.196;5.660;2023-06-22T06:07:58;30.15;;;24.92;;
75320;SDS011;68337;52.196;5.660;2023-06-22T06:10:28;30.05;;;24.55;;
75320;SDS011;68337;52.196;5.660;2023-06-22T06:12:55;28.30;;;24.67;;
75320;SDS011;68337;52.196;5.660;2023-06-22T06:15:21;29.50;;;21.63;;
75320;SDS011;68337;52.196;5.660;2023-06-22T06:17:50;25.33;;;20.85;;
75320;SDS011;68337;52.196;5.660;2023-06-22T06:20:21;26.17;;;20.75;;
75320;SDS011;68337;52.196;5.660;2023-06-22T06:22:48;25.52;;;20.48;;
75320;SDS011;68337;52.196;5.660;2023-06-22T06:25:15;24.73;;;19.48;;
75320;SDS011;68337;52.196;5.660;2023-06-22T06:27:48;24.42;;;20.08;;
75320;SDS011;68337;52.196;5.660;2023-06-22T06:30:15;23.45;;;18.77;;
75320;SDS011;68337;52.196;5.660;2023-06-22T06:32:42;23.25;;;20.13;;
75320;SDS011;68337;52.196;5.660;2023-06-22T06:35:10;23.83;;;19.10;;
75320;SDS011;68337;52.196;5.660;2023-06-22T06:37:40;21.63;;;18.30;;
75320;SDS011;68337;52.196;5.660;2023-06-22T06:40:07;23.38;;;18.77;;
75320;SDS011;68337;52.196;5.660;2023-06-22T06:42:45;20.60;;;17.13;;
75320;SDS011;68337;52.196;5.660;2023-06-22T06:45:14;22.67;;;17.17;;
75320;SDS011;68337;52.196;5.660;2023-06-22T06:47:41;20.70;;;15.68;;
75320;SDS011;68337;52.196;5.660;2023-06-22T06:50:07;21.05;;;15.77;;
75320;SDS011;68337;52.196;5.660;2023-06-22T06:52:34;24.25;;;16.42;;
75320;SDS011;68337;52.196;5.660;2023-06-22T06:54:59;23.27;;;16.25;;
75320;SDS011;68337;52.196;5.660;2023-06-22T06:57:25;18.15;;;15.15;;
75320;SDS011;68337;52.196;5.660;2023-06-22T06:59:55;21.08;;;15.15;;
75320;SDS011;68337;52.196;5.660;2023-06-22T07:02:22;17.98;;;14.77;;
75320;SDS011;68337;52.196;5.660;2023-06-22T07:04:48;17.33;;;14.40;;
75320;SDS011;68337;52.196;5.660;2023-06-22T07:07:14;17.88;;;13.15;;
75320;SDS011;68337;52.196;5.660;2023-06-22T07:09:40;17.02;;;14.88;;
75320;SDS011;68337;52.196;5.660;2023-06-22T07:12:06;21.27;;;13.52;;
75320;SDS011;68337;52.196;5.660;2023-06-22T07:14:32;16.20;;;13.10;;
75320;SDS011;68337;52.196;5.660;2023-06-22T07:16:58;12.38;;;11.02;;
75320;SDS011;68337;52.196;5.660;2023-06-22T07:19:24;16.35;;;12.68;;
75320;SDS011;68337;52.196;5.660;2023-06-22T07:21:51;15.07;;;12.32;;
75320;SDS011;68337;52.196;5.660;2023-06-22T07:24:18;15.07;;;11.70;;
75320;SDS011;68337;52.196;5.660;2023-06-22T07:26:45;15.85;;;11.90;;
75320;SDS011;68337;52.196;5.660;2023-06-22T07:29:13;15.98;;;11.57;;
75320;SDS011;68337;52.196;5.660;2023-06-22T07:31:39;15.75;;;11.85;;
75320;SDS011;68337;52.196;5.660;2023-06-22T07:34:06;13.70;;;10.50;;
75320;SDS011;68337;52.196;5.660;2023-06-22T07:36:31;15.23;;;12.43;;
75320;SDS011;68337;52.196;5.660;2023-06-22T07:38:57;11.57;;;10.38;;
75320;SDS011;68337;52.196;5.660;2023-06-22T07:41:23;11.27;;;9.60;;
75320;SDS011;68337;52.196;5.660;2023-06-22T07:43:49;10.60;;;9.60;;
75320;SDS011;68337;52.196;5.660;2023-06-22T07:46:15;14.65;;;9.98;;
75320;SDS011;68337;52.196;5.660;2023-06-22T07:48:41;12.05;;;9.20;;
75320;SDS011;68337;52.196;5.660;2023-06-22T07:51:08;11.73;;;9.88;;
75320;SDS011;68337;52.196;5.660;2023-06-22T07:53:39;13.43;;;9.25;;
75320;SDS011;68337;52.196;5.660;2023-06-22T07:56:09;10.18;;;9.13;;
75320;SDS011;68337;52.196;5.660;2023-06-22T07:58:36;14.95;;;10.25;;
75320;SDS011;68337;52.196;5.660;2023-06-22T08:01:01;12.35;;;10.55;;
75320;SDS011;68337;52.196;5.660;2023-06-22T08:03:28;12.57;;;9.88;;
75320;SDS011;68337;52.196;5.660;2023-06-22T08:05:54;10.73;;;8.43;;
75320;SDS011;68337;52.196;5.660;2023-06-22T08:08:20;12.32;;;8.82;;
75320;SDS011;68337;52.196;5.660;2023-06-22T08:10:46;9.77;;;8.68;;
75320;SDS011;68337;52.196;5.660;2023-06-22T08:13:12;8.90;;;7.25;;
75320;SDS011;68337;52.196;5.660;2023-06-22T08:15:38;8.98;;;8.10;;
75320;SDS011;68337;52.196;5.660;2023-06-22T08:18:03;8.65;;;7.03;;
75320;SDS011;68337;52.196;5.660;2023-06-22T08:20:30;9.65;;;8.55;;
75320;SDS011;68337;52.196;5.660;2023-06-22T08:22:56;10.85;;;9.52;;
75320;SDS011;68337;52.196;5.660;2023-06-22T08:25:25;10.88;;;8.88;;
75320;SDS011;68337;52.196;5.660;2023-06-22T08:27:51;10.02;;;7.53;;
75320;SDS011;68337;52.196;5.660;2023-06-22T08:30:17;10.52;;;6.45;;
75320;SDS011;68337;52.196;5.660;2023-06-22T08:32:46;10.20;;;7.35;;
75320;SDS011;68337;52.196;5.660;2023-06-22T08:35:12;11.07;;;7.85;;
75320;SDS011;68337;52.196;5.660;2023-06-22T08:37:37;11.55;;;7.07;;
75320;SDS011;68337;52.196;5.660;2023-06-22T08:40:04;12.63;;;8.70;;
75320;SDS011;68337;52.196;5.660;2023-06-22T08:42:39;8.75;;;7.85;;
75320;SDS011;68337;52.196;5.660;2023-06-22T08:45:06;10.90;;;7.95;;
75320;SDS011;68337;52.196;5.660;2023-06-22T08:47:32;10.05;;;7.90;;
75320;SDS011;68337;52.196;5.660;2023-06-22T08:49:58;7.82;;;6.53;;
75320;SDS011;68337;52.196;5.660;2023-06-22T08:52:24;8.77;;;6.88;;
75320;SDS011;68337;52.196;5.660;2023-06-22T08:54:50;8.07;;;7.05;;
75320;SDS011;68337;52.196;5.660;2023-06-22T08:57:16;7.88;;;6.60;;
75320;SDS011;68337;52.196;5.660;2023-06-22T08:59:42;11.00;;;7.43;;
75320;SDS011;68337;52.196;5.660;2023-06-22T09:02:08;10.73;;;7.97;;
75320;SDS011;68337;52.196;5.660;2023-06-22T09:04:34;6.80;;;6.05;;
75320;SDS011;68337;52.196;5.660;2023-06-22T09:07:00;8.57;;;6.10;;
75320;SDS011;68337;52.196;5.660;2023-06-22T09:09:26;9.65;;;5.75;;
75320;SDS011;68337;52.196;5.660;2023-06-22T09:11:52;11.20;;;6.05;;
75320;SDS011;68337;52.196;5.660;2023-06-22T09:14:18;7.03;;;6.25;;
75320;SDS011;68337;52.196;5.660;2023-06-22T09:16:43;10.27;;;6.13;;
75320;SDS011;68337;52.196;5.660;2023-06-22T09:19:09;6.45;;;5.05;;
75320;SDS011;68337;52.196;5.660;2023-06-22T09:21:35;7.75;;;5.38;;
75320;SDS011;68337;52.196;5.660;2023-06-22T09:24:01;5.30;;;4.80;;
75320;SDS011;68337;52.196;5.660;2023-06-22T09:26:27;6.53;;;5.82;;
75320;SDS011;68337;52.196;5.660;2023-06-22T09:28:56;7.18;;;5.97;;
75320;SDS011;68337;52.196;5.660;2023-06-22T09:31:23;9.07;;;5.80;;
75320;SDS011;68337;52.196;5.660;2023-06-22T09:33:51;9.10;;;5.55;;
75320;SDS011;68337;52.196;5.660;2023-06-22T09:36:18;6.60;;;5.30;;
75320;SDS011;68337;52.196;5.660;2023-06-22T09:38:43;4.30;;;3.88;;
75320;SDS011;68337;52.196;5.660;2023-06-22T09:41:09;7.38;;;5.53;;
75320;SDS011;68337;52.196;5.660;2023-06-22T09:43:35;7.80;;;6.20;;
75320;SDS011;68337;52.196;5.660;2023-06-22T09:46:01;7.63;;;5.32;;
75320;SDS011;68337;52.196;5.660;2023-06-22T09:48:27;7.65;;;5.75;;
75320;SDS011;68337;52.196;5.660;2023-06-22T09:50:54;6.65;;;6.00;;
75320;SDS011;68337;52.196;5.660;2023-06-22T09:53:20;8.77;;;5.65;;
75320;SDS011;68337;52.196;5.660;2023-06-22T09:55:46;5.60;;;4.35;;
75320;SDS011;68337;52.196;5.660;2023-06-22T09:58:12;6.38;;;3.90;;
75320;SDS011;68337;52.196;5.660;2023-06-22T10:00:38;5.57;;;5.07;;
75320;SDS011;68337;52.196;5.660;2023-06-22T10:03:04;6.22;;;5.20;;
75320;SDS011;68337;52.196;5.660;2023-06-22T10:05:29;7.57;;;6.53;;
75320;SDS011;68337;52.196;5.660;2023-06-22T10:07:56;6.50;;;4.90;;
75320;SDS011;68337;52.196;5.660;2023-06-22T10:10:22;5.80;;;4.25;;
75320;SDS011;68337;52.196;5.660;2023-06-22T10:12:54;7.85;;;4.70;;
75320;SDS011;68337;52.196;5.660;2023-06-22T10:15:22;6.10;;;4.75;;
75320;SDS011;68337;52.196;5.660;2023-06-22T10:17:48;7.20;;;3.95;;
75320;SDS011;68337;52.196;5.660;2023-06-22T10:20:14;7.88;;;5.35;;
75320;SDS011;68337;52.196;5.660;2023-06-22T10:22:43;4.93;;;3.97;;
75320;SDS011;68337;52.196;5.660;2023-06-22T10:25:12;3.90;;;3.40;;
75320;SDS011;68337;52.196;5.660;2023-06-22T10:27:38;4.75;;;3.65;;
75320;SDS011;68337;52.196;5.660;2023-06-22T10:30:08;6.53;;;5.00;;
75320;SDS011;68337;52.196;5.660;2023-06-22T10:32:35;5.82;;;4.90;;
75320;SDS011;68337;52.196;5.660;2023-06-22T10:35:01;6.10;;;4.43;;
75320;SDS011;68337;52.196;5.660;2023-06-22T10:37:27;8.00;;;4.28;;
75320;SDS011;68337;52.196;5.660;2023-06-22T10:39:53;7.80;;;4.40;;
75320;SDS011;68337;52.196;5.660;2023-06-22T10:42:19;4.25;;;3.85;;
75320;SDS011;68337;52.196;5.660;2023-06-22T10:44:44;4.88;;;4.38;;
75320;SDS011;68337;52.196;5.660;2023-06-22T10:47:10;4.20;;;3.80;;
75320;SDS011;68337;52.196;5.660;2023-06-22T10:49:39;4.68;;;3.67;;
75320;SDS011;68337;52.196;5.660;2023-06-22T10:52:06;4.93;;;4.45;;
75320;SDS011;68337;52.196;5.660;2023-06-22T10:54:33;5.88;;;4.13;;
75320;SDS011;68337;52.196;5.660;2023-06-22T10:56:59;7.38;;;4.50;;
75320;SDS011;68337;52.196;5.660;2023-06-22T10:59:25;5.28;;;4.72;;
75320;SDS011;68337;52.196;5.660;2023-06-22T11:01:53;7.53;;;5.57;;
75320;SDS011;68337;52.196;5.660;2023-06-22T11:04:18;5.82;;;5.32;;
75320;SDS011;68337;52.196;5.660;2023-06-22T11:06:44;6.13;;;4.97;;
75320;SDS011;68337;52.196;5.660;2023-06-22T11:09:10;13.35;;;8.07;;
75320;SDS011;68337;52.196;5.660;2023-06-22T11:11:36;8.27;;;5.45;;
75320;SDS011;68337;52.196;5.660;2023-06-22T11:14:02;8.05;;;4.95;;
75320;SDS011;68337;52.196;5.660;2023-06-22T11:16:27;11.27;;;6.90;;
75320;SDS011;68337;52.196;5.660;2023-06-22T11:18:53;7.97;;;6.38;;
75320;SDS011;68337;52.196;5.660;2023-06-22T11:21:19;9.57;;;6.43;;
75320;SDS011;68337;52.196;5.660;2023-06-22T11:23:44;7.32;;;6.07;;
75320;SDS011;68337;52.196;5.660;2023-06-22T11:26:10;8.82;;;6.82;;
75320;SDS011;68337;52.196;5.660;2023-06-22T11:28:36;7.10;;;5.93;;
75320;SDS011;68337;52.196;5.660;2023-06-22T11:31:02;8.07;;;7.05;;
75320;SDS011;68337;52.196;5.660;2023-06-22T11:33:28;9.15;;;6.38;;
75320;SDS011;68337;52.196;5.660;2023-06-22T11:35:54;7.75;;;5.85;;
75320;SDS011;68337;52.196;5.660;2023-06-22T11:38:21;9.63;;;6.10;;
75320;SDS011;68337;52.196;5.660;2023-06-22T11:40:47;7.30;;;6.22;;
75320;SDS011;68337;52.196;5.660;2023-06-22T11:43:13;8.80;;;6.50;;
75320;SDS011;68337;52.196;5.660;2023-06-22T11:45:40;5.65;;;5.13;;
75320;SDS011;68337;52.196;5.660;2023-06-22T11:48:05;9.68;;;6.97;;
75320;SDS011;68337;52.196;5.660;2023-06-22T11:50:31;6.85;;;6.05;;
75320;SDS011;68337;52.196;5.660;2023-06-22T11:53:01;7.93;;;7.13;;
75320;SDS011;68337;52.196;5.660;2023-06-22T11:55:28;11.65;;;7.88;;
75320;SDS011;68337;52.196;5.660;2023-06-22T11:57:55;9.25;;;7.32;;
75320;SDS011;68337;52.196;5.660;2023-06-22T12:00:23;7.65;;;6.93;;
75320;SDS011;68337;52.196;5.660;2023-06-22T12:02:50;7.75;;;6.70;;
75320;SDS011;68337;52.196;5.660;2023-06-22T12:05:19;12.15;;;6.13;;
75320;SDS011;68337;52.196;5.660;2023-06-22T12:07:49;8.00;;;5.75;;
75320;SDS011;68337;52.196;5.660;2023-06-22T12:10:15;7.20;;;5.82;;
75320;SDS011;68337;52.196;5.660;2023-06-22T12:12:41;5.47;;;4.90;;
75320;SDS011;68337;52.196;5.660;2023-06-22T12:15:08;6.30;;;5.70;;
75320;SDS011;68337;52.196;5.660;2023-06-22T12:17:34;7.82;;;7.10;;
75320;SDS011;68337;52.196;5.660;2023-06-22T12:20:00;8.25;;;6.15;;
75320;SDS011;68337;52.196;5.660;2023-06-22T12:22:30;11.30;;;7.40;;
75320;SDS011;68337;52.196;5.660;2023-06-22T12:24:56;9.63;;;6.70;;
75320;SDS011;68337;52.196;5.660;2023-06-22T12:27:22;6.82;;;5.97;;
75320;SDS011;68337;52.196;5.660;2023-06-22T12:29:48;12.82;;;7.65;;
75320;SDS011;68337;52.196;5.660;2023-06-22T12:32:14;7.15;;;5.10;;
75320;SDS011;68337;52.196;5.660;2023-06-22T12:34:41;7.32;;;6.63;;
75320;SDS011;68337;52.196;5.660;2023-06-22T12:37:07;11.98;;;8.45;;
75320;SDS011;68337;52.196;5.660;2023-06-22T12:39:33;11.07;;;8.15;;
75320;SDS011;68337;52.196;5.660;2023-06-22T12:41:59;7.40;;;5.93;;
75320;SDS011;68337;52.196;5.660;2023-06-22T12:44:26;6.18;;;5.57;;
75320;SDS011;68337;52.196;5.660;2023-06-22T12:46:51;7.68;;;6.72;;
75320;SDS011;68337;52.196;5.660;2023-06-22T12:49:17;7.43;;;6.45;;
75320;SDS011;68337;52.196;5.660;2023-06-22T12:51:43;8.13;;;7.38;;
75320;SDS011;68337;52.196;5.660;2023-06-22T12:54:09;8.15;;;7.35;;
75320;SDS011;68337;52.196;5.660;2023-06-22T12:56:36;10.40;;;7.13;;
75320;SDS011;68337;52.196;5.660;2023-06-22T12:59:03;7.35;;;6.50;;
75320;SDS011;68337;52.196;5.660;2023-06-22T13:01:29;12.32;;;6.53;;
75320;SDS011;68337;52.196;5.660;2023-06-22T13:03:57;8.05;;;6.40;;
75320;SDS011;68337;52.196;5.660;2023-06-22T13:06:24;8.15;;;7.05;;
75320;SDS011;68337;52.196;5.660;2023-06-22T13:08:49;7.32;;;5.40;;
75320;SDS011;68337;52.196;5.660;2023-06-22T13:11:15;7.15;;;6.40;;
75320;SDS011;68337;52.196;5.660;2023-06-22T13:13:41;6.75;;;5.35;;
75320;SDS011;68337;52.196;5.660;2023-06-22T13:16:07;7.18;;;6.03;;
75320;SDS011;68337;52.196;5.660;2023-06-22T13:18:33;8.48;;;6.55;;
75320;SDS011;68337;52.196;5.660;2023-06-22T13:21:01;10.55;;;7.43;;
75320;SDS011;68337;52.196;5.660;2023-06-22T13:23:27;7.55;;;5.57;;
75320;SDS011;68337;52.196;5.660;2023-06-22T13:25:53;6.65;;;6.05;;
75320;SDS011;68337;52.196;5.660;2023-06-22T13:28:19;7.72;;;6.40;;
75320;SDS011;68337;52.196;5.660;2023-06-22T13:30:45;7.07;;;6.38;;
75320;SDS011;68337;52.196;5.660;2023-06-22T13:33:15;9.05;;;7.00;;
75320;SDS011;68337;52.196;5.660;2023-06-22T13:35:41;8.13;;;7.28;;
75320;SDS011;68337;52.196;5.660;2023-06-22T13:38:10;7.28;;;6.63;;
75320;SDS011;68337;52.196;5.660;2023-06-22T13:40:36;8.02;;;7.20;;
75320;SDS011;68337;52.196;5.660;2023-06-22T13:43:05;9.07;;;7.70;;
75320;SDS011;68337;52.196;5.660;2023-06-22T13:45:31;8.20;;;7.25;;
75320;SDS011;68337;52.196;5.660;2023-06-22T13:47:57;12.13;;;7.10;;
75320;SDS011;68337;52.196;5.660;2023-06-22T13:50:23;7.80;;;6.93;;
75320;SDS011;68337;52.196;5.660;2023-06-22T13:52:49;8.55;;;7.68;;
75320;SDS011;68337;52.196;5.660;2023-06-22T13:55:15;8.77;;;7.43;;
75320;SDS011;68337;52.196;5.660;2023-06-22T13:57:40;8.27;;;7.00;;
75320;SDS011;68337;52.196;5.660;2023-06-22T14:00:07;7.68;;;6.88;;
75320;SDS011;68337;52.196;5.660;2023-06-22T14:02:33;14.20;;;7.53;;
75320;SDS011;68337;52.196;5.660;2023-06-22T14:04:59;9.13;;;7.35;;
75320;SDS011;68337;52.196;5.660;2023-06-22T14:07:25;7.50;;;6.60;;
75320;SDS011;68337;52.196;5.660;2023-06-22T14:09:51;10.30;;;7.82;;
75320;SDS011;68337;52.196;5.660;2023-06-22T14:12:17;8.90;;;8.02;;
75320;SDS011;68337;52.196;5.660;2023-06-22T14:14:43;10.57;;;8.90;;
75320;SDS011;68337;52.196;5.660;2023-06-22T14:17:09;10.20;;;8.93;;
75320;SDS011;68337;52.196;5.660;2023-06-22T14:19:35;9.77;;;8.35;;
75320;SDS011;68337;52.196;5.660;2023-06-22T14:22:01;10.07;;;9.05;;
75320;SDS011;68337;52.196;5.660;2023-06-22T14:24:27;12.25;;;9.15;;
75320;SDS011;68337;52.196;5.660;2023-06-22T14:26:53;12.27;;;9.35;;
75320;SDS011;68337;52.196;5.660;2023-06-22T14:29:20;8.65;;;7.80;;
75320;SDS011;68337;52.196;5.660;2023-06-22T14:31:46;9.75;;;8.82;;
75320;SDS011;68337;52.196;5.660;2023-06-22T14:34:12;9.75;;;8.77;;
75320;SDS011;68337;52.196;5.660;2023-06-22T14:36:38;9.38;;;8.23;;
75320;SDS011;68337;52.196;5.660;2023-06-22T14:39:04;10.23;;;7.93;;
75320;SDS011;68337;52.196;5.660;2023-06-22T14:41:30;15.65;;;9.48;;
75320;SDS011;68337;52.196;5.660;2023-06-22T14:43:56;10.55;;;9.48;;
75320;SDS011;68337;52.196;5.660;2023-06-22T14:46:22;11.05;;;9.95;;